13:11
Airports
History
Links
Donate
Help keep this website running!
PayPal
Bitcoin
This page is community maintained. The information is intended for PC simulator navigation or reference.
Always use approved charts for navigation.
SNZE
Aeroxingu
Aeroxingu (SNZE)
Altamira, Pará, Brazil
4
Lat/Lng:3° 10' 19" S / 52° 11' 30" W
-3.171944 / -52.191667
Elevation:369'ft / 112mMSL
ID / ICAO:SNZE
Runways:1
Longest:13-31
Gravel 708m / 2,323ft
Nearby Weather12:00 GMT 2017-10-17
Nearby weather at SBHT, ALTAMIRA located 7.1 nautical miles from SNZE
Altimeter: 29.94
Visibility: 6.2 statute miles
Wind: 9 knots (from 080°)
Temp: 28°c / 82°f
Humidity: 74.3%

METAR: SBHT 171200Z 08009KT 9999 BKN017 28/23 Q1014

(Powered by phpweather)
Runway 13 / 31
Dimensions:708.1 x 18m 2323' x 59'ft
Surface:Gravel
Runway 13 [A]Runway 31 [B]
Heading:111°TH 291°TH
Lat:
Lng:
3° 10' 14.9"S
52° 11' 40.59"W
3° 10' 23.1"S
52° 11' 19.41"W
User Notes and Comments
3° 10' 19" S / 52° 11' 30" W
Distance To
Airport ID:
Nearby Airports
(C) ALTAMIRA 7.1 NM
SBHT ( WX ) SW 217°
4 Continental 9.7 NM
SNCF SSW 208°
4 Pousada Rio Xingu 32.8 NM
SJJH E 99°
4 Fazenda Peturu 35.8 NM
SWQY NNW 340°
4 Chacara Maringa 44.5 NM
SDWV NNE 21°
(U) WILMA REBELO 44.7 NM
SNWR NE 34°
4 Galletti II 73.7 NM
SSXR ENE 78°
VFR Chart
Flight Planning at SkyVector.com